sensor_id;sensor_type;location;lat;lon;timestamp;temperature;humidity
41262;DHT22;29629;52.532;13.352;2023-01-20T00:01:20;3.30;99.90
41262;DHT22;29629;52.532;13.352;2023-01-20T00:03:47;3.30;99.90
41262;DHT22;29629;52.532;13.352;2023-01-20T00:06:15;3.20;99.90
41262;DHT22;29629;52.532;13.352;2023-01-20T00:08:42;3.20;99.90
41262;DHT22;29629;52.532;13.352;2023-01-20T00:11:11;3.20;99.90
41262;DHT22;29629;52.532;13.352;2023-01-20T00:13:38;3.20;99.90
41262;DHT22;29629;52.532;13.352;2023-01-20T00:16:08;3.30;99.90
41262;DHT22;29629;52.532;13.352;2023-01-20T00:18:35;3.20;99.90
41262;DHT22;29629;52.532;13.352;2023-01-20T00:21:04;3.30;99.90
41262;DHT22;29629;52.532;13.352;2023-01-20T00:23:32;3.30;99.90
41262;DHT22;29629;52.532;13.352;2023-01-20T00:26:03;3.20;99.90
41262;DHT22;29629;52.532;13.352;2023-01-20T00:28:31;3.30;99.90
41262;DHT22;29629;52.532;13.352;2023-01-20T00:30:58;3.30;99.90
41262;DHT22;29629;52.532;13.352;2023-01-20T00:33:26;3.30;99.90
41262;DHT22;29629;52.532;13.352;2023-01-20T00:35:53;3.20;99.90
41262;DHT22;29629;52.532;13.352;2023-01-20T00:38:20;3.20;99.90
41262;DHT22;29629;52.532;13.352;2023-01-20T00:40:52;3.10;99.90
41262;DHT22;29629;52.532;13.352;2023-01-20T00:43:20;3.10;99.90
41262;DHT22;29629;52.532;13.352;2023-01-20T00:45:47;3.20;99.90
41262;DHT22;29629;52.532;13.352;2023-01-20T00:48:13;3.20;99.90
41262;DHT22;29629;52.532;13.352;2023-01-20T00:50:42;3.10;99.90
41262;DHT22;29629;52.532;13.352;2023-01-20T00:53:09;3.10;99.90
41262;DHT22;29629;52.532;13.352;2023-01-20T00:55:36;3.10;99.90
41262;DHT22;29629;52.532;13.352;2023-01-20T00:58:03;3.00;99.90
41262;DHT22;29629;52.532;13.352;2023-01-20T01:00:30;3.10;99.90
41262;DHT22;29629;52.532;13.352;2023-01-20T01:02:57;3.20;99.90
41262;DHT22;29629;52.532;13.352;2023-01-20T01:05:24;3.20;99.90
41262;DHT22;29629;52.532;13.352;2023-01-20T01:07:52;3.20;99.90
41262;DHT22;29629;52.532;13.352;2023-01-20T01:10:19;3.20;99.90
41262;DHT22;29629;52.532;13.352;2023-01-20T01:12:46;3.10;99.90
41262;DHT22;29629;52.532;13.352;2023-01-20T01:15:13;3.20;99.90
41262;DHT22;29629;52.532;13.352;2023-01-20T01:17:41;3.10;99.90
41262;DHT22;29629;52.532;13.352;2023-01-20T01:20:10;3.10;99.90
41262;DHT22;29629;52.532;13.352;2023-01-20T01:22:37;3.10;99.90
41262;DHT22;29629;52.532;13.352;2023-01-20T01:25:07;3.10;99.90
41262;DHT22;29629;52.532;13.352;2023-01-20T01:27:33;3.10;99.90
41262;DHT22;29629;52.532;13.352;2023-01-20T01:30:00;3.10;99.90
41262;DHT22;29629;52.532;13.352;2023-01-20T01:32:27;3.10;99.90
41262;DHT22;29629;52.532;13.352;2023-01-20T01:34:54;3.10;99.90
41262;DHT22;29629;52.532;13.352;2023-01-20T01:37:21;3.10;99.90
41262;DHT22;29629;52.532;13.352;2023-01-20T01:39:48;3.10;99.90
41262;DHT22;29629;52.532;13.352;2023-01-20T01:42:18;3.00;99.90
41262;DHT22;29629;52.532;13.352;2023-01-20T01:47:53;2.80;99.90
41262;DHT22;29629;52.532;13.352;2023-01-20T01:50:23;2.80;99.90
41262;DHT22;29629;52.532;13.352;2023-01-20T01:52:53;2.80;99.90
41262;DHT22;29629;52.532;13.352;2023-01-20T01:55:24;2.80;99.90
41262;DHT22;29629;52.532;13.352;2023-01-20T01:57:54;2.70;99.90
41262;DHT22;29629;52.532;13.352;2023-01-20T02:00:21;2.70;99.90
41262;DHT22;29629;52.532;13.352;2023-01-20T02:02:48;2.70;99.90
41262;DHT22;29629;52.532;13.352;2023-01-20T02:05:16;2.80;99.90
41262;DHT22;29629;52.532;13.352;2023-01-20T02:07:45;2.70;99.90
41262;DHT22;29629;52.532;13.352;2023-01-20T02:10:13;2.70;99.90
41262;DHT22;29629;52.532;13.352;2023-01-20T02:12:41;2.70;99.90
41262;DHT22;29629;52.532;13.352;2023-01-20T02:15:11;2.80;99.90
41262;DHT22;29629;52.532;13.352;2023-01-20T02:17:42;2.80;99.90
41262;DHT22;29629;52.532;13.352;2023-01-20T02:26:36;2.80;99.90
41262;DHT22;29629;52.532;13.352;2023-01-20T02:32:18;2.70;99.90
41262;DHT22;29629;52.532;13.352;2023-01-20T02:34:53;2.80;99.90
41262;DHT22;29629;52.532;13.352;2023-01-20T02:37:27;2.80;99.90
41262;DHT22;29629;52.532;13.352;2023-01-20T02:40:08;2.70;99.90
41262;DHT22;29629;52.532;13.352;2023-01-20T02:42:42;2.70;99.90
41262;DHT22;29629;52.532;13.352;2023-01-20T02:45:16;2.80;99.90
41262;DHT22;29629;52.532;13.352;2023-01-20T02:47:51;2.70;99.90
41262;DHT22;29629;52.532;13.352;2023-01-20T02:50:22;2.80;99.90
41262;DHT22;29629;52.532;13.352;2023-01-20T02:52:53;2.80;99.90
41262;DHT22;29629;52.532;13.352;2023-01-20T02:55:28;2.80;99.90
41262;DHT22;29629;52.532;13.352;2023-01-20T02:58:01;2.80;99.90
41262;DHT22;29629;52.532;13.352;2023-01-20T03:00:34;2.80;99.90
41262;DHT22;29629;52.532;13.352;2023-01-20T03:03:07;2.80;99.90
41262;DHT22;29629;52.532;13.352;2023-01-20T03:05:37;2.80;99.90
41262;DHT22;29629;52.532;13.352;2023-01-20T03:08:06;2.80;99.90
41262;DHT22;29629;52.532;13.352;2023-01-20T03:10:36;2.70;99.90
41262;DHT22;29629;52.532;13.352;2023-01-20T03:13:08;2.80;99.90
41262;DHT22;29629;52.532;13.352;2023-01-20T03:15:42;2.80;99.90
41262;DHT22;29629;52.532;13.352;2023-01-20T03:18:14;2.70;99.90
41262;DHT22;29629;52.532;13.352;2023-01-20T03:20:41;2.70;99.90
41262;DHT22;29629;52.532;13.352;2023-01-20T03:23:08;2.70;99.90
41262;DHT22;29629;52.532;13.352;2023-01-20T03:25:37;2.60;99.90
41262;DHT22;29629;52.532;13.352;2023-01-20T03:28:04;2.70;99.90
41262;DHT22;29629;52.532;13.352;2023-01-20T03:30:31;2.60;99.90
41262;DHT22;29629;52.532;13.352;2023-01-20T03:32:59;2.70;99.90
41262;DHT22;29629;52.532;13.352;2023-01-20T03:35:27;2.60;99.90
41262;DHT22;29629;52.532;13.352;2023-01-20T03:37:54;2.70;99.90
41262;DHT22;29629;52.532;13.352;2023-01-20T03:40:22;2.60;99.90
41262;DHT22;29629;52.532;13.352;2023-01-20T03:42:54;2.60;99.90
41262;DHT22;29629;52.532;13.352;2023-01-20T03:45:30;2.70;99.90
41262;DHT22;29629;52.532;13.352;2023-01-20T03:48:02;2.70;99.90
41262;DHT22;29629;52.532;13.352;2023-01-20T03:50:37;2.60;99.90
41262;DHT22;29629;52.532;13.352;2023-01-20T03:53:16;2.70;99.90
41262;DHT22;29629;52.532;13.352;2023-01-20T03:55:49;2.70;99.90
41262;DHT22;29629;52.532;13.352;2023-01-20T03:58:19;2.70;99.90
41262;DHT22;29629;52.532;13.352;2023-01-20T04:00:49;2.70;99.90
41262;DHT22;29629;52.532;13.352;2023-01-20T04:03:19;2.60;99.90
41262;DHT22;29629;52.532;13.352;2023-01-20T04:05:49;2.70;99.90
41262;DHT22;29629;52.532;13.352;2023-01-20T04:08:19;2.50;99.90
41262;DHT22;29629;52.532;13.352;2023-01-20T04:10:50;2.40;99.90
41262;DHT22;29629;52.532;13.352;2023-01-20T04:13:17;2.40;99.90
41262;DHT22;29629;52.532;13.352;2023-01-20T04:15:44;2.50;99.90
41262;DHT22;29629;52.532;13.352;2023-01-20T04:18:13;2.50;99.90
41262;DHT22;29629;52.532;13.352;2023-01-20T04:20:41;2.40;99.90
41262;DHT22;29629;52.532;13.352;2023-01-20T04:23:13;2.60;99.90
41262;DHT22;29629;52.532;13.352;2023-01-20T04:25:42;2.50;99.90
41262;DHT22;29629;52.532;13.352;2023-01-20T04:28:09;2.40;99.90
41262;DHT22;29629;52.532;13.352;2023-01-20T04:30:36;2.40;99.90
41262;DHT22;29629;52.532;13.352;2023-01-20T04:33:03;2.40;99.90
41262;DHT22;29629;52.532;13.352;2023-01-20T04:35:30;2.50;99.90
41262;DHT22;29629;52.532;13.352;2023-01-20T04:37:57;2.50;99.90
41262;DHT22;29629;52.532;13.352;2023-01-20T04:40:25;2.60;99.90
41262;DHT22;29629;52.532;13.352;2023-01-20T04:42:52;2.60;99.90
41262;DHT22;29629;52.532;13.352;2023-01-20T04:45:19;2.50;99.90
41262;DHT22;29629;52.532;13.352;2023-01-20T04:47:46;2.50;99.90
41262;DHT22;29629;52.532;13.352;2023-01-20T04:50:13;2.50;99.90
41262;DHT22;29629;52.532;13.352;2023-01-20T04:52:41;2.40;99.90
41262;DHT22;29629;52.532;13.352;2023-01-20T04:55:08;2.50;99.90
41262;DHT22;29629;52.532;13.352;2023-01-20T04:57:37;2.40;99.90
41262;DHT22;29629;52.532;13.352;2023-01-20T05:00:06;2.50;99.90
41262;DHT22;29629;52.532;13.352;2023-01-20T05:02:33;2.50;99.90
41262;DHT22;29629;52.532;13.352;2023-01-20T05:05:00;2.50;99.90
41262;DHT22;29629;52.532;13.352;2023-01-20T05:07:27;2.30;99.90
41262;DHT22;29629;52.532;13.352;2023-01-20T05:09:54;2.30;99.90
41262;DHT22;29629;52.532;13.352;2023-01-20T05:12:20;2.40;99.90
41262;DHT22;29629;52.532;13.352;2023-01-20T05:14:49;2.30;99.90
41262;DHT22;29629;52.532;13.352;2023-01-20T05:17:16;2.30;99.90
41262;DHT22;29629;52.532;13.352;2023-01-20T05:19:43;2.30;99.90
41262;DHT22;29629;52.532;13.352;2023-01-20T05:22:10;2.10;99.90
41262;DHT22;29629;52.532;13.352;2023-01-20T05:24:36;2.20;99.90
41262;DHT22;29629;52.532;13.352;2023-01-20T05:27:04;2.00;99.90
41262;DHT22;29629;52.532;13.352;2023-01-20T05:29:30;1.90;99.90
41262;DHT22;29629;52.532;13.352;2023-01-20T05:31:59;1.80;99.90
41262;DHT22;29629;52.532;13.352;2023-01-20T05:34:26;1.90;99.90
41262;DHT22;29629;52.532;13.352;2023-01-20T05:36:53;1.50;99.90
41262;DHT22;29629;52.532;13.352;2023-01-20T05:39:20;1.40;99.90
41262;DHT22;29629;52.532;13.352;2023-01-20T05:41:47;1.50;99.90
41262;DHT22;29629;52.532;13.352;2023-01-20T05:44:15;1.50;99.90
41262;DHT22;29629;52.532;13.352;2023-01-20T05:46:42;1.70;99.90
41262;DHT22;29629;52.532;13.352;2023-01-20T05:49:11;1.50;99.90
41262;DHT22;29629;52.532;13.352;2023-01-20T05:51:38;1.60;99.90
41262;DHT22;29629;52.532;13.352;2023-01-20T05:54:05;1.80;99.90
41262;DHT22;29629;52.532;13.352;2023-01-20T05:56:32;1.80;99.90
41262;DHT22;29629;52.532;13.352;2023-01-20T05:58:59;1.90;99.90
41262;DHT22;29629;52.532;13.352;2023-01-20T06:01:26;1.90;99.90
41262;DHT22;29629;52.532;13.352;2023-01-20T06:03:52;1.90;99.90
41262;DHT22;29629;52.532;13.352;2023-01-20T06:06:21;1.90;99.90
41262;DHT22;29629;52.532;13.352;2023-01-20T06:08:50;2.00;99.90
41262;DHT22;29629;52.532;13.352;2023-01-20T06:11:18;1.90;99.90
41262;DHT22;29629;52.532;13.352;2023-01-20T06:13:46;2.10;99.90
41262;DHT22;29629;52.532;13.352;2023-01-20T06:16:14;2.00;99.90
41262;DHT22;29629;52.532;13.352;2023-01-20T06:18:41;2.00;99.90
41262;DHT22;29629;52.532;13.352;2023-01-20T06:21:08;2.00;99.90
41262;DHT22;29629;52.532;13.352;2023-01-20T06:23:36;2.00;99.90
41262;DHT22;29629;52.532;13.352;2023-01-20T06:26:05;2.00;99.90
41262;DHT22;29629;52.532;13.352;2023-01-20T06:28:32;2.20;99.90
41262;DHT22;29629;52.532;13.352;2023-01-20T06:31:01;2.10;99.90
41262;DHT22;29629;52.532;13.352;2023-01-20T06:33:29;2.10;99.90
41262;DHT22;29629;52.532;13.352;2023-01-20T06:35:56;1.90;99.90
41262;DHT22;29629;52.532;13.352;2023-01-20T06:38:23;1.90;99.90
41262;DHT22;29629;52.532;13.352;2023-01-20T06:40:55;1.80;99.90
41262;DHT22;29629;52.532;13.352;2023-01-20T06:43:23;1.80;99.90
41262;DHT22;29629;52.532;13.352;2023-01-20T06:45:50;1.80;99.90
41262;DHT22;29629;52.532;13.352;2023-01-20T06:48:17;1.80;99.90
41262;DHT22;29629;52.532;13.352;2023-01-20T06:50:44;1.70;99.90
41262;DHT22;29629;52.532;13.352;2023-01-20T06:53:11;1.80;99.90
41262;DHT22;29629;52.532;13.352;2023-01-20T06:55:38;1.70;99.90
41262;DHT22;29629;52.532;13.352;2023-01-20T06:58:06;1.80;99.90
41262;DHT22;29629;52.532;13.352;2023-01-20T07:00:33;1.80;99.90
41262;DHT22;29629;52.532;13.352;2023-01-20T07:03:00;1.80;99.90
41262;DHT22;29629;52.532;13.352;2023-01-20T07:05:27;1.90;99.90
41262;DHT22;29629;52.532;13.352;2023-01-20T07:07:54;2.00;99.90
41262;DHT22;29629;52.532;13.352;2023-01-20T07:10:21;2.00;99.90
41262;DHT22;29629;52.532;13.352;2023-01-20T07:12:48;2.00;99.90
41262;DHT22;29629;52.532;13.352;2023-01-20T07:15:16;1.90;99.90
41262;DHT22;29629;52.532;13.352;2023-01-20T07:17:43;1.90;99.90
41262;DHT22;29629;52.532;13.352;2023-01-20T07:20:11;1.80;99.90
41262;DHT22;29629;52.532;13.352;2023-01-20T07:22:38;1.90;99.90
41262;DHT22;29629;52.532;13.352;2023-01-20T07:25:05;1.80;99.90
41262;DHT22;29629;52.532;13.352;2023-01-20T07:27:32;1.80;99.90
41262;DHT22;29629;52.532;13.352;2023-01-20T07:29:59;1.80;99.90
41262;DHT22;29629;52.532;13.352;2023-01-20T07:32:29;1.80;99.90
41262;DHT22;29629;52.532;13.352;2023-01-20T07:34:56;1.80;99.90
41262;DHT22;29629;52.532;13.352;2023-01-20T07:37:23;1.80;99.90
41262;DHT22;29629;52.532;13.352;2023-01-20T07:39:50;1.60;99.90
41262;DHT22;29629;52.532;13.352;2023-01-20T07:42:17;1.80;99.90
41262;DHT22;29629;52.532;13.352;2023-01-20T07:44:44;1.70;99.90
41262;DHT22;29629;52.532;13.352;2023-01-20T07:47:11;1.70;99.90
41262;DHT22;29629;52.532;13.352;2023-01-20T07:49:39;1.80;99.90
41262;DHT22;29629;52.532;13.352;2023-01-20T07:52:06;1.90;99.90
41262;DHT22;29629;52.532;13.352;2023-01-20T07:54:33;1.80;99.90
41262;DHT22;29629;52.532;13.352;2023-01-20T07:57:00;1.90;99.90
41262;DHT22;29629;52.532;13.352;2023-01-20T07:59:27;1.90;99.90
41262;DHT22;29629;52.532;13.352;2023-01-20T08:01:54;2.10;99.90
41262;DHT22;29629;52.532;13.352;2023-01-20T08:04:21;2.00;99.90
41262;DHT22;29629;52.532;13.352;2023-01-20T08:06:50;1.90;99.90
41262;DHT22;29629;52.532;13.352;2023-01-20T08:09:16;1.90;99.90
41262;DHT22;29629;52.532;13.352;2023-01-20T08:11:44;2.00;99.90
41262;DHT22;29629;52.532;13.352;2023-01-20T08:14:11;2.10;99.90
41262;DHT22;29629;52.532;13.352;2023-01-20T08:16:38;2.10;99.90
41262;DHT22;29629;52.532;13.352;2023-01-20T08:19:05;2.00;99.90
41262;DHT22;29629;52.532;13.352;2023-01-20T08:21:32;2.00;99.90
41262;DHT22;29629;52.532;13.352;2023-01-20T08:24:02;2.00;99.90
41262;DHT22;29629;52.532;13.352;2023-01-20T08:26:31;2.00;99.90
41262;DHT22;29629;52.532;13.352;2023-01-20T08:29:01;2.00;99.90
41262;DHT22;29629;52.532;13.352;2023-01-20T08:31:28;2.10;99.90
41262;DHT22;29629;52.532;13.352;2023-01-20T08:33:55;2.00;99.90
41262;DHT22;29629;52.532;13.352;2023-01-20T08:36:25;1.90;99.90
41262;DHT22;29629;52.532;13.352;2023-01-20T08:38:54;1.90;99.90
41262;DHT22;29629;52.532;13.352;2023-01-20T08:41:24;2.00;99.90
41262;DHT22;29629;52.532;13.352;2023-01-20T08:43:52;1.90;99.90
41262;DHT22;29629;52.532;13.352;2023-01-20T08:46:20;1.90;99.90
41262;DHT22;29629;52.532;13.352;2023-01-20T08:48:48;2.00;99.90
41262;DHT22;29629;52.532;13.352;2023-01-20T08:51:17;2.00;99.90
41262;DHT22;29629;52.532;13.352;2023-01-20T08:53:44;2.10;99.90
41262;DHT22;29629;52.532;13.352;2023-01-20T08:56:12;1.80;99.90
41262;DHT22;29629;52.532;13.352;2023-01-20T08:58:40;2.10;99.90
41262;DHT22;29629;52.532;13.352;2023-01-20T09:01:08;2.00;99.90
41262;DHT22;29629;52.532;13.352;2023-01-20T09:03:36;2.10;99.90
41262;DHT22;29629;52.532;13.352;2023-01-20T09:06:03;2.10;99.90
41262;DHT22;29629;52.532;13.352;2023-01-20T09:08:31;2.10;99.90
41262;DHT22;29629;52.532;13.352;2023-01-20T09:11:01;2.10;99.90
41262;DHT22;29629;52.532;13.352;2023-01-20T09:13:29;2.20;99.90
41262;DHT22;29629;52.532;13.352;2023-01-20T09:15:57;2.20;99.90
41262;DHT22;29629;52.532;13.352;2023-01-20T09:18:24;2.10;99.90
41262;DHT22;29629;52.532;13.352;2023-01-20T09:20:51;2.20;99.90
41262;DHT22;29629;52.532;13.352;2023-01-20T09:23:18;2.30;99.90
41262;DHT22;29629;52.532;13.352;2023-01-20T09:25:45;2.30;99.90
41262;DHT22;29629;52.532;13.352;2023-01-20T09:28:12;2.30;99.90
41262;DHT22;29629;52.532;13.352;2023-01-20T09:30:39;2.20;99.90
41262;DHT22;29629;52.532;13.352;2023-01-20T09:33:09;2.40;99.90
41262;DHT22;29629;52.532;13.352;2023-01-20T09:35:36;2.40;99.90
41262;DHT22;29629;52.532;13.352;2023-01-20T09:38:04;2.40;99.90
41262;DHT22;29629;52.532;13.352;2023-01-20T09:40:58;2.40;99.90
41262;DHT22;29629;52.532;13.352;2023-01-20T09:43:54;2.30;99.90
41262;DHT22;29629;52.532;13.352;2023-01-20T09:46:35;2.30;99.90
41262;DHT22;29629;52.532;13.352;2023-01-20T09:49:15;2.50;99.90
41262;DHT22;29629;52.532;13.352;2023-01-20T09:52:09;2.40;99.90
41262;DHT22;29629;52.532;13.352;2023-01-20T09:54:58;2.40;99.90
41262;DHT22;29629;52.532;13.352;2023-01-20T09:57:29;2.50;99.90
41262;DHT22;29629;52.532;13.352;2023-01-20T10:00:02;2.60;99.90
41262;DHT22;29629;52.532;13.352;2023-01-20T10:02:34;2.50;99.90
41262;DHT22;29629;52.532;13.352;2023-01-20T10:05:09;2.60;99.90
41262;DHT22;29629;52.532;13.352;2023-01-20T10:07:44;2.50;99.90
41262;DHT22;29629;52.532;13.352;2023-01-20T10:10:16;2.60;99.90
41262;DHT22;29629;52.532;13.352;2023-01-20T10:12:47;2.70;99.90
41262;DHT22;29629;52.532;13.352;2023-01-20T10:15:19;2.50;99.90
41262;DHT22;29629;52.532;13.352;2023-01-20T10:17:52;2.60;99.90
41262;DHT22;29629;52.532;13.352;2023-01-20T10:20:27;2.80;99.90
41262;DHT22;29629;52.532;13.352;2023-01-20T10:23:02;2.80;99.90
41262;DHT22;29629;52.532;13.352;2023-01-20T10:25:37;2.90;99.90
41262;DHT22;29629;52.532;13.352;2023-01-20T10:28:10;2.90;99.90
41262;DHT22;29629;52.532;13.352;2023-01-20T10:30:37;2.80;99.90
41262;DHT22;29629;52.532;13.352;2023-01-20T10:33:08;2.90;99.90
41262;DHT22;29629;52.532;13.352;2023-01-20T10:35:39;3.00;99.90
41262;DHT22;29629;52.532;13.352;2023-01-20T10:38:14;2.90;99.90
41262;DHT22;29629;52.532;13.352;2023-01-20T10:40:48;2.80;99.90
41262;DHT22;29629;52.532;13.352;2023-01-20T10:43:18;3.00;99.90
41262;DHT22;29629;52.532;13.352;2023-01-20T10:48:51;2.70;99.90
41262;DHT22;29629;52.532;13.352;2023-01-20T10:51:30;2.90;99.90
41262;DHT22;29629;52.532;13.352;2023-01-20T10:54:05;2.90;99.90
41262;DHT22;29629;52.532;13.352;2023-01-20T10:56:41;3.10;99.90
41262;DHT22;29629;52.532;13.352;2023-01-20T10:59:12;3.00;99.90
41262;DHT22;29629;52.532;13.352;2023-01-20T11:01:41;2.90;99.90
41262;DHT22;29629;52.532;13.352;2023-01-20T11:04:17;3.10;99.90
41262;DHT22;29629;52.532;13.352;2023-01-20T11:06:48;3.10;99.90
41262;DHT22;29629;52.532;13.352;2023-01-20T11:09:20;3.20;99.90
41262;DHT22;29629;52.532;13.352;2023-01-20T11:11:49;3.20;99.90
41262;DHT22;29629;52.532;13.352;2023-01-20T11:14:18;3.30;99.90
41262;DHT22;29629;52.532;13.352;2023-01-20T11:16:49;3.40;99.90
41262;DHT22;29629;52.532;13.352;2023-01-20T11:19:17;3.30;99.90
41262;DHT22;29629;52.532;13.352;2023-01-20T11:21:45;3.30;99.90
41262;DHT22;29629;52.532;13.352;2023-01-20T11:24:31;3.30;99.90
41262;DHT22;29629;52.532;13.352;2023-01-20T11:27:03;3.20;99.90
41262;DHT22;29629;52.532;13.352;2023-01-20T11:29:33;3.20;99.90
41262;DHT22;29629;52.532;13.352;2023-01-20T11:32:03;3.30;99.90
41262;DHT22;29629;52.532;13.352;2023-01-20T11:34:30;3.40;99.90
41262;DHT22;29629;52.532;13.352;2023-01-20T11:37:16;3.40;99.90
41262;DHT22;29629;52.532;13.352;2023-01-20T11:39:55;3.30;99.90
41262;DHT22;29629;52.532;13.352;2023-01-20T11:42:25;3.50;99.90
41262;DHT22;29629;52.532;13.352;2023-01-20T11:44:54;3.50;99.90
41262;DHT22;29629;52.532;13.352;2023-01-20T11:47:24;3.40;99.90
41262;DHT22;29629;52.532;13.352;2023-01-20T11:50:22;3.40;99.90
41262;DHT22;29629;52.532;13.352;2023-01-20T11:52:52;3.50;99.90
41262;DHT22;29629;52.532;13.352;2023-01-20T11:55:20;3.40;99.90
41262;DHT22;29629;52.532;13.352;2023-01-20T11:57:50;3.50;99.90
41262;DHT22;29629;52.532;13.352;2023-01-20T12:00:29;3.60;99.90
41262;DHT22;29629;52.532;13.352;2023-01-20T12:02:59;3.50;99.90
41262;DHT22;29629;52.532;13.352;2023-01-20T12:05:33;3.50;99.90
41262;DHT22;29629;52.532;13.352;2023-01-20T12:08:09;3.60;99.90
41262;DHT22;29629;52.532;13.352;2023-01-20T12:10:41;3.60;99.90
41262;DHT22;29629;52.532;13.352;2023-01-20T12:13:15;3.70;99.90
41262;DHT22;29629;52.532;13.352;2023-01-20T12:15:46;3.70;99.90
41262;DHT22;29629;52.532;13.352;2023-01-20T12:18:21;3.50;99.90
41262;DHT22;29629;52.532;13.352;2023-01-20T12:20:54;3.50;99.90
41262;DHT22;29629;52.532;13.352;2023-01-20T12:23:32;3.60;99.90
41262;DHT22;29629;52.532;13.352;2023-01-20T12:26:05;3.50;99.90
41262;DHT22;29629;52.532;13.352;2023-01-20T12:28:37;3.50;99.90
41262;DHT22;29629;52.532;13.352;2023-01-20T12:31:08;3.40;99.90
41262;DHT22;29629;52.532;13.352;2023-01-20T12:33:37;3.20;99.90
41262;DHT22;29629;52.532;13.352;2023-01-20T12:36:32;3.10;99.90
41262;DHT22;29629;52.532;13.352;2023-01-20T12:39:34;3.40;99.90
41262;DHT22;29629;52.532;13.352;2023-01-20T12:42:26;3.30;99.90
41262;DHT22;29629;52.532;13.352;2023-01-20T12:44:57;3.40;99.90
41262;DHT22;29629;52.532;13.352;2023-01-20T12:47:35;3.40;99.90
41262;DHT22;29629;52.532;13.352;2023-01-20T12:50:19;3.50;99.90
41262;DHT22;29629;52.532;13.352;2023-01-20T12:52:59;3.60;99.90
41262;DHT22;29629;52.532;13.352;2023-01-20T12:55:49;3.70;99.90
41262;DHT22;29629;52.532;13.352;2023-01-20T12:58:26;3.80;99.90
41262;DHT22;29629;52.532;13.352;2023-01-20T13:01:29;3.60;99.90
41262;DHT22;29629;52.532;13.352;2023-01-20T13:04:35;3.50;99.90
41262;DHT22;29629;52.532;13.352;2023-01-20T13:07:13;3.70;99.90
41262;DHT22;29629;52.532;13.352;2023-01-20T13:09:56;3.60;99.90
41262;DHT22;29629;52.532;13.352;2023-01-20T13:12:39;3.70;99.90
41262;DHT22;29629;52.532;13.352;2023-01-20T13:15:19;3.80;99.90
41262;DHT22;29629;52.532;13.352;2023-01-20T13:18:06;3.80;99.90
41262;DHT22;29629;52.532;13.352;2023-01-20T13:20:39;3.50;99.90
41262;DHT22;29629;52.532;13.352;2023-01-20T13:23:12;3.60;99.90
41262;DHT22;29629;52.532;13.352;2023-01-20T13:25:41;3.60;99.90
41262;DHT22;29629;52.532;13.352;2023-01-20T13:28:15;3.70;99.90
41262;DHT22;29629;52.532;13.352;2023-01-20T13:30:44;3.70;99.90
41262;DHT22;29629;52.532;13.352;2023-01-20T13:33:25;3.60;99.90
41262;DHT22;29629;52.532;13.352;2023-01-20T13:35:54;3.60;99.90
41262;DHT22;29629;52.532;13.352;2023-01-20T13:38:23;3.70;99.90
41262;DHT22;29629;52.532;13.352;2023-01-20T13:40:54;3.60;99.90
41262;DHT22;29629;52.532;13.352;2023-01-20T13:46:44;3.20;99.90
41262;DHT22;29629;52.532;13.352;2023-01-20T13:49:28;3.50;99.90
41262;DHT22;29629;52.532;13.352;2023-01-20T13:52:10;3.60;99.90
41262;DHT22;29629;52.532;13.352;2023-01-20T13:54:42;3.80;99.90
41262;DHT22;29629;52.532;13.352;2023-01-20T13:57:31;3.90;99.90
41262;DHT22;29629;52.532;13.352;2023-01-20T14:00:00;4.00;99.90
41262;DHT22;29629;52.532;13.352;2023-01-20T14:02:34;4.00;99.90
41262;DHT22;29629;52.532;13.352;2023-01-20T14:05:01;3.80;99.90
41262;DHT22;29629;52.532;13.352;2023-01-20T14:07:30;3.70;99.90
41262;DHT22;29629;52.532;13.352;2023-01-20T14:09:58;3.70;99.90
41262;DHT22;29629;52.532;13.352;2023-01-20T14:12:26;3.80;99.90
41262;DHT22;29629;52.532;13.352;2023-01-20T14:14:53;3.80;99.90
41262;DHT22;29629;52.532;13.352;2023-01-20T14:17:23;3.90;99.90
41262;DHT22;29629;52.532;13.352;2023-01-20T14:19:52;3.90;99.90
41262;DHT22;29629;52.532;13.352;2023-01-20T14:22:23;3.80;99.90
41262;DHT22;29629;52.532;13.352;2023-01-20T14:24:51;3.90;99.90
41262;DHT22;29629;52.532;13.352;2023-01-20T14:27:19;3.80;99.90
41262;DHT22;29629;52.532;13.352;2023-01-20T14:29:48;3.70;99.90
41262;DHT22;29629;52.532;13.352;2023-01-20T14:32:17;3.80;99.90
41262;DHT22;29629;52.532;13.352;2023-01-20T14:34:46;3.80;99.90
41262;DHT22;29629;52.532;13.352;2023-01-20T14:37:24;3.80;99.90
41262;DHT22;29629;52.532;13.352;2023-01-20T14:39:52;3.70;99.90
41262;DHT22;29629;52.532;13.352;2023-01-20T14:42:23;3.70;99.90
41262;DHT22;29629;52.532;13.352;2023-01-20T14:44:53;3.60;99.90
41262;DHT22;29629;52.532;13.352;2023-01-20T14:47:20;3.70;99.90
41262;DHT22;29629;52.532;13.352;2023-01-20T14:49:50;3.70;99.90
41262;DHT22;29629;52.532;13.352;2023-01-20T14:52:21;3.60;99.90
41262;DHT22;29629;52.532;13.352;2023-01-20T14:54:49;3.60;99.90
41262;DHT22;29629;52.532;13.352;2023-01-20T14:57:23;3.60;99.90
41262;DHT22;29629;52.532;13.352;2023-01-20T15:00:21;3.60;99.90
41262;DHT22;29629;52.532;13.352;2023-01-20T15:02:50;3.60;99.90
41262;DHT22;29629;52.532;13.352;2023-01-20T15:05:26;3.60;99.90
41262;DHT22;29629;52.532;13.352;2023-01-20T15:08:19;3.60;99.90
41262;DHT22;29629;52.532;13.352;2023-01-20T15:14:11;3.50;99.90
41262;DHT22;29629;52.532;13.352;2023-01-20T15:16:57;3.50;99.90
41262;DHT22;29629;52.532;13.352;2023-01-20T15:19:28;3.40;99.90
41262;DHT22;29629;52.532;13.352;2023-01-20T15:22:09;3.30;99.90
41262;DHT22;29629;52.532;13.352;2023-01-20T15:24:36;3.20;99.90
41262;DHT22;29629;52.532;13.352;2023-01-20T15:27:20;3.30;99.90
41262;DHT22;29629;52.532;13.352;2023-01-20T15:30:13;3.00;99.90
41262;DHT22;29629;52.532;13.352;2023-01-20T15:32:40;3.00;99.90
41262;DHT22;29629;52.532;13.352;2023-01-20T15:35:11;3.10;99.90
41262;DHT22;29629;52.532;13.352;2023-01-20T15:37:39;3.10;99.90
41262;DHT22;29629;52.532;13.352;2023-01-20T15:40:13;3.10;99.90
41262;DHT22;29629;52.532;13.352;2023-01-20T15:42:40;3.20;99.90
41262;DHT22;29629;52.532;13.352;2023-01-20T15:45:11;3.20;99.90
41262;DHT22;29629;52.532;13.352;2023-01-20T15:47:39;3.20;99.90
41262;DHT22;29629;52.532;13.352;2023-01-20T15:50:13;3.20;99.90
41262;DHT22;29629;52.532;13.352;2023-01-20T15:52:40;3.20;99.90
41262;DHT22;29629;52.532;13.352;2023-01-20T15:55:10;3.10;99.90
41262;DHT22;29629;52.532;13.352;2023-01-20T15:57:37;3.00;99.90
41262;DHT22;29629;52.532;13.352;2023-01-20T16:00:06;3.00;99.90
41262;DHT22;29629;52.532;13.352;2023-01-20T16:02:34;2.90;99.90
41262;DHT22;29629;52.532;13.352;2023-01-20T16:05:01;2.90;99.90
41262;DHT22;29629;52.532;13.352;2023-01-20T16:07:28;2.90;99.90
41262;DHT22;29629;52.532;13.352;2023-01-20T16:09:55;2.90;99.90
41262;DHT22;29629;52.532;13.352;2023-01-20T16:12:22;2.70;99.90
41262;DHT22;29629;52.532;13.352;2023-01-20T16:14:49;2.60;99.90